Time;durP1;ratioP1;P1;durP2;ratioP2;P2;SDS_P1;SDS_P2;PMS_P1;PMS_P2;Temp;Humidity;BMP_temperature;BMP_pressure;BME280_temperature;BME280_humidity;BME280_pressure;Samples;Min_cycle;Max_cycle;Signal;HPM_P1;HPM_P2
2022/11/01 00:00:48;;;;;;;22.88;13.75;;;13.50;99.90;;;;;;4885454;29;20348;-63
2022/11/01 00:03:14;;;;;;;22.95;12.43;;;13.50;99.90;;;;;;4886414;29;20067;-62
2022/11/01 00:05:40;;;;;;;29.42;13.20;;;13.50;99.90;;;;;;4886429;29;20056;-62
2022/11/01 00:08:06;;;;;;;23.00;12.10;;;13.50;99.90;;;;;;4904349;29;20055;-62
2022/11/01 00:10:31;;;;;;;20.50;12.70;;;13.50;99.90;;;;;;4916646;28;20056;-62
2022/11/01 00:12:57;;;;;;;25.92;11.95;;;13.50;99.90;;;;;;4907170;29;20052;-62
2022/11/01 00:15:24;;;;;;;27.33;12.48;;;13.50;99.90;;;;;;4915316;28;20084;-62
2022/11/01 00:17:50;;;;;;;19.90;11.70;;;13.50;99.90;;;;;;4916814;28;20044;-62
2022/11/01 00:20:16;;;;;;;24.38;11.95;;;13.50;99.90;;;;;;4886403;29;20115;-62
2022/11/01 00:22:41;;;;;;;21.98;11.93;;;13.50;99.90;;;;;;4891076;29;20051;-62
2022/11/01 00:25:08;;;;;;;24.23;12.45;;;13.50;99.90;;;;;;4890667;29;21063;-63
2022/11/01 00:27:34;;;;;;;20.08;11.73;;;13.50;99.90;;;;;;4887980;29;20048;-62
2022/11/01 00:30:00;;;;;;;23.75;11.73;;;13.50;99.90;;;;;;4921525;28;20047;-62
2022/11/01 00:32:25;;;;;;;25.83;12.13;;;13.50;99.90;;;;;;4894764;29;20054;-62
2022/11/01 00:34:51;;;;;;;21.15;11.85;;;13.50;99.90;;;;;;4887762;29;20139;-62
2022/11/01 00:37:17;;;;;;;26.73;12.07;;;13.50;99.90;;;;;;4886845;29;20056;-62
2022/11/01 00:39:43;;;;;;;23.65;11.15;;;13.50;99.90;;;;;;4889330;29;20044;-62
2022/11/01 00:42:08;;;;;;;22.33;11.30;;;13.50;99.90;;;;;;4903354;29;20142;-62
2022/11/01 00:44:34;;;;;;;20.83;11.45;;;13.50;99.90;;;;;;4885783;29;20130;-62
2022/11/01 00:47:00;;;;;;;24.92;12.23;;;13.50;99.90;;;;;;4903201;29;20052;-62
2022/11/01 00:49:26;;;;;;;24.15;12.02;;;13.60;99.90;;;;;;4887098;29;20869;-62
2022/11/01 00:51:51;;;;;;;20.38;11.40;;;13.50;99.90;;;;;;4886818;29;20049;-62
2022/11/01 00:54:17;;;;;;;20.27;10.88;;;13.50;99.90;;;;;;4886222;29;20056;-62
2022/11/01 00:56:43;;;;;;;27.38;10.88;;;13.50;99.90;;;;;;4917880;29;20056;-62
2022/11/01 00:59:09;;;;;;;25.35;10.75;;;13.50;99.90;;;;;;4888402;29;20064;-62
2022/11/01 01:01:35;;;;;;;17.27;10.15;;;13.60;99.90;;;;;;4919022;28;20043;-61
2022/11/01 01:04:00;;;;;;;19.17;10.63;;;13.60;99.90;;;;;;4889915;29;20048;-62
2022/11/01 01:06:26;;;;;;;22.00;10.98;;;13.60;99.90;;;;;;4906046;29;20372;-62
2022/11/01 01:08:52;;;;;;;19.45;10.65;;;13.60;99.90;;;;;;4886773;29;20218;-62
2022/11/01 01:11:18;;;;;;;19.42;10.38;;;13.60;99.90;;;;;;4886429;29;20052;-62
2022/11/01 01:13:44;;;;;;;23.50;10.65;;;13.60;99.90;;;;;;4887920;29;20060;-62
2022/11/01 01:16:11;;;;;;;19.42;9.73;;;13.60;99.90;;;;;;4884483;29;20044;-62
2022/11/01 01:18:37;;;;;;;19.50;10.43;;;13.70;99.90;;;;;;4920050;28;20040;-62
2022/11/01 01:21:04;;;;;;;20.75;9.60;;;13.60;99.90;;;;;;4917131;28;20131;-62
2022/11/01 01:23:30;;;;;;;24.23;10.10;;;13.70;99.90;;;;;;4919573;28;20052;-62
2022/11/01 01:25:56;;;;;;;20.60;10.00;;;13.70;99.90;;;;;;4891594;29;20115;-62
2022/11/01 01:28:22;;;;;;;16.83;9.52;;;13.70;99.90;;;;;;4909663;29;20700;-62
2022/11/01 01:30:47;;;;;;;20.05;9.77;;;13.70;99.90;;;;;;4909272;29;20069;-62
2022/11/01 01:33:13;;;;;;;19.20;9.35;;;13.70;99.90;;;;;;4917213;28;20135;-62
2022/11/01 01:35:39;;;;;;;22.20;9.57;;;13.80;99.90;;;;;;4918994;28;20050;-62
2022/11/01 01:38:06;;;;;;;17.30;9.35;;;13.80;99.90;;;;;;4886351;29;20408;-62
2022/11/01 01:40:33;;;;;;;21.35;9.40;;;13.80;99.90;;;;;;4887989;29;20045;-62
2022/11/01 01:42:59;;;;;;;19.52;9.27;;;13.80;99.90;;;;;;4891791;29;20059;-62
2022/11/01 01:45:30;;;;;;;16.20;9.25;;;13.90;99.90;;;;;;4883981;29;20423;-62
2022/11/01 01:48:08;;;;;;;18.70;9.25;;;13.90;99.90;;;;;;4918398;28;20053;-62
2022/11/01 01:50:46;;;;;;;18.38;9.40;;;13.80;99.90;;;;;;4918708;29;20055;-62
2022/11/01 01:53:28;;;;;;;19.92;9.27;;;13.90;99.90;;;;;;4889897;29;20245;-62
2022/11/01 01:56:08;;;;;;;21.93;9.50;;;13.90;99.90;;;;;;4918222;28;20048;-62
2022/11/01 01:58:41;;;;;;;21.20;8.98;;;13.90;99.90;;;;;;4886688;29;20127;-62
2022/11/01 02:01:07;;;;;;;21.20;8.95;;;13.90;99.90;;;;;;4889435;29;20048;-62
2022/11/01 02:03:35;;;;;;;22.45;9.10;;;13.90;99.90;;;;;;4897362;29;20051;-62
2022/11/01 02:06:16;;;;;;;17.13;8.75;;;13.90;99.90;;;;;;4920997;28;20059;-62
2022/11/01 02:08:50;;;;;;;20.00;8.82;;;13.90;99.90;;;;;;4903683;29;20411;-62
2022/11/01 02:11:17;;;;;;;17.90;8.63;;;13.90;99.90;;;;;;4916783;28;20078;-62
2022/11/01 02:13:43;;;;;;;13.95;8.43;;;13.90;99.90;;;;;;4884130;29;20057;-62
2022/11/01 02:16:18;;;;;;;16.75;8.63;;;13.90;99.90;;;;;;4870994;29;20143;-62
2022/11/01 02:19:00;;;;;;;16.40;8.10;;;13.90;99.90;;;;;;4916809;29;20052;-62
2022/11/01 02:21:46;;;;;;;18.45;8.68;;;13.90;99.90;;;;;;4884651;29;20099;-62
2022/11/01 02:24:22;;;;;;;17.00;8.40;;;13.90;99.90;;;;;;4885569;29;20148;-62
2022/11/01 02:27:09;;;;;;;20.00;8.40;;;14.00;99.90;;;;;;4886582;29;20143;-62
2022/11/01 02:30:03;;;;;;;12.43;7.47;;;14.00;99.90;;;;;;4917789;28;20507;-62
2022/11/01 02:32:45;;;;;;;20.23;8.75;;;14.00;99.90;;;;;;4885060;29;20083;-62
2022/11/01 02:35:14;;;;;;;16.20;8.43;;;14.00;99.90;;;;;;4884750;29;20048;-62
2022/11/01 02:37:43;;;;;;;16.83;8.25;;;14.00;99.90;;;;;;4885533;29;20060;-62
2022/11/01 02:40:15;;;;;;;21.67;7.90;;;14.00;99.90;;;;;;4888692;29;20059;-63
2022/11/01 02:42:52;;;;;;;16.42;7.90;;;14.00;99.90;;;;;;4915692;28;20476;-62
2022/11/01 02:45:32;;;;;;;16.38;7.85;;;14.00;99.90;;;;;;4917114;28;20059;-62
2022/11/01 02:47:59;;;;;;;18.13;8.60;;;14.00;99.90;;;;;;4888443;29;20260;-62
2022/11/01 02:50:52;;;;;;;19.13;7.93;;;14.10;99.90;;;;;;4885015;29;20760;-61
2022/11/01 02:53:17;;;;;;;15.17;7.63;;;14.10;99.90;;;;;;4888204;29;20135;-62
2022/11/01 02:55:43;;;;;;;14.70;8.18;;;14.10;99.90;;;;;;4886951;29;20435;-61
2022/11/01 02:58:19;;;;;;;20.63;7.75;;;14.10;99.90;;;;;;4886722;29;20056;-62
2022/11/01 03:00:45;;;;;;;16.90;8.13;;;14.10;99.90;;;;;;4883670;29;20139;-62
2022/11/01 03:03:22;;;;;;;21.92;8.07;;;14.10;99.90;;;;;;4883984;29;20071;-62
2022/11/01 03:05:51;;;;;;;19.63;8.10;;;14.20;99.90;;;;;;4897747;29;20107;-62
2022/11/01 03:08:22;;;;;;;19.42;7.78;;;14.20;99.90;;;;;;4891376;29;20151;-62
2022/11/01 03:11:13;;;;;;;16.55;8.10;;;14.20;99.90;;;;;;4884227;29;20119;-62
2022/11/01 03:14:10;;;;;;;15.82;7.05;;;14.30;99.90;;;;;;4880733;29;20575;-62
2022/11/01 03:16:43;;;;;;;16.77;8.02;;;14.30;99.90;;;;;;4884588;29;20054;-62
2022/11/01 03:19:24;;;;;;;18.23;7.60;;;14.30;99.90;;;;;;4887963;29;20052;-62
2022/11/01 03:22:01;;;;;;;16.48;7.40;;;14.40;99.90;;;;;;4887059;29;20128;-62
2022/11/01 03:24:45;;;;;;;16.33;7.63;;;14.40;99.90;;;;;;4886261;29;20053;-62
2022/11/01 03:27:40;;;;;;;16.67;7.68;;;14.40;99.90;;;;;;4916138;29;20131;-62
2022/11/01 03:30:10;;;;;;;14.45;7.57;;;14.40;99.90;;;;;;4890411;29;20418;-62
2022/11/01 03:32:42;;;;;;;17.90;7.93;;;14.40;99.90;;;;;;4914711;28;20055;-62
2022/11/01 03:35:12;;;;;;;15.80;7.18;;;14.40;99.90;;;;;;4885612;29;20052;-62
2022/11/01 03:37:42;;;;;;;14.95;7.15;;;14.40;99.90;;;;;;4918329;28;20055;-62
2022/11/01 03:40:10;;;;;;;13.85;7.18;;;14.40;99.90;;;;;;4914207;29;20044;-62
2022/11/01 03:42:37;;;;;;;20.08;7.60;;;14.40;99.90;;;;;;4877457;29;20056;-62
2022/11/01 03:45:08;;;;;;;12.82;7.82;;;14.40;99.90;;;;;;4891659;29;20575;-62
2022/11/01 03:47:35;;;;;;;14.13;7.10;;;14.50;99.90;;;;;;4874276;29;20052;-62
2022/11/01 03:50:20;;;;;;;16.23;7.13;;;14.50;99.90;;;;;;4887399;29;20147;-62
2022/11/01 03:52:46;;;;;;;24.58;7.28;;;14.50;99.90;;;;;;4891005;29;20048;-62
2022/11/01 03:55:17;;;;;;;17.55;6.75;;;14.60;99.90;;;;;;4887713;29;20044;-62
2022/11/01 03:57:50;;;;;;;10.38;6.57;;;14.60;99.90;;;;;;4904639;29;21671;-62
2022/11/01 04:00:40;;;;;;;13.45;6.70;;;14.60;99.90;;;;;;4888089;29;20044;-62
2022/11/01 04:03:08;;;;;;;15.27;6.13;;;14.60;99.90;;;;;;4885193;29;20060;-62
2022/11/01 04:05:35;;;;;;;14.32;6.50;;;14.60;99.90;;;;;;4889733;29;20120;-62
2022/11/01 04:08:01;;;;;;;18.77;7.15;;;14.60;99.90;;;;;;4921143;28;20392;-61
2022/11/01 04:10:30;;;;;;;12.50;7.00;;;14.60;99.90;;;;;;4911256;29;20131;-62
2022/11/01 04:12:56;;;;;;;12.45;6.60;;;14.50;99.90;;;;;;4920639;29;20065;-62
2022/11/01 04:21:05;;;;;;;15.65;6.63;;;14.60;99.90;;;;;;4887029;29;20515;-62
2022/11/01 04:23:30;;;;;;;18.55;6.72;;;14.60;99.90;;;;;;4916398;29;20047;-62
2022/11/01 04:25:56;;;;;;;15.70;6.68;;;14.60;99.90;;;;;;4908298;29;20510;-62
2022/11/01 04:28:22;;;;;;;14.85;7.03;;;14.60;99.90;;;;;;4894311;29;20091;-63
2022/11/01 04:30:48;;;;;;;14.50;6.38;;;14.60;99.90;;;;;;4888431;29;20096;-62
2022/11/01 04:33:14;;;;;;;13.75;7.18;;;14.60;99.90;;;;;;4919393;28;20582;-62
2022/11/01 04:35:40;;;;;;;16.33;6.55;;;14.60;99.90;;;;;;4905777;29;21052;-62
2022/11/01 04:38:07;;;;;;;13.90;6.95;;;14.60;99.90;;;;;;4919448;28;20087;-62
2022/11/01 04:40:33;;;;;;;17.60;6.22;;;14.60;99.90;;;;;;4917464;29;20087;-62
2022/11/01 04:42:59;;;;;;;12.32;5.97;;;14.70;99.90;;;;;;4894718;29;20056;-62
2022/11/01 04:45:25;;;;;;;14.40;6.13;;;14.70;99.90;;;;;;4893490;29;20983;-62
2022/11/01 04:48:07;;;;;;;12.45;6.35;;;14.70;99.90;;;;;;4885890;29;20139;-62
2022/11/01 04:50:34;;;;;;;16.05;6.63;;;14.70;99.90;;;;;;4913803;28;20207;-62
2022/11/01 04:53:00;;;;;;;13.45;6.15;;;14.70;99.90;;;;;;4917432;29;20053;-62
2022/11/01 04:55:27;;;;;;;16.67;6.35;;;14.70;99.90;;;;;;4920230;28;20056;-62
2022/11/01 04:57:53;;;;;;;17.23;5.75;;;14.80;99.90;;;;;;4918699;28;20056;-62
2022/11/01 05:00:21;;;;;;;12.55;5.55;;;14.90;99.90;;;;;;4913000;28;20048;-62
2022/11/01 05:02:48;;;;;;;17.33;5.93;;;14.90;99.90;;;;;;4884561;29;20060;-62
2022/11/01 05:05:14;;;;;;;8.27;5.28;;;14.90;99.90;;;;;;4913278;28;20056;-62
2022/11/01 05:07:39;;;;;;;10.13;5.40;;;14.90;99.90;;;;;;4889085;29;20048;-62
2022/11/01 05:10:06;;;;;;;13.27;6.18;;;15.00;99.90;;;;;;4903933;29;20044;-63
2022/11/01 05:12:32;;;;;;;12.85;5.25;;;15.10;99.90;;;;;;4885070;29;20052;-62
2022/11/01 05:14:58;;;;;;;16.50;5.38;;;15.10;99.90;;;;;;4915323;28;20128;-62
2022/11/01 05:17:23;;;;;;;11.15;5.82;;;15.10;99.90;;;;;;4878189;29;20056;-63
2022/11/01 05:19:49;;;;;;;9.88;4.95;;;15.20;99.90;;;;;;4904314;29;20189;-62
2022/11/01 05:22:15;;;;;;;15.40;5.00;;;15.20;99.90;;;;;;4904164;29;20104;-62
2022/11/01 05:24:41;;;;;;;11.88;5.05;;;15.20;99.90;;;;;;4918744;28;20135;-62
2022/11/01 05:27:07;;;;;;;10.02;5.07;;;15.20;99.90;;;;;;4918221;29;20056;-62
2022/11/01 05:29:32;;;;;;;12.35;4.93;;;15.20;99.90;;;;;;4885889;29;20518;-62
2022/11/01 05:31:58;;;;;;;14.45;5.05;;;15.30;99.90;;;;;;4919001;28;20397;-62
2022/11/01 05:34:24;;;;;;;13.07;5.93;;;15.30;99.90;;;;;;4900817;29;20448;-62
2022/11/01 05:36:50;;;;;;;18.15;6.57;;;15.30;99.90;;;;;;4891021;29;20174;-62
2022/11/01 05:39:16;;;;;;;12.75;6.32;;;15.30;99.90;;;;;;4886154;29;20095;-62
2022/11/01 05:41:41;;;;;;;11.38;5.90;;;15.30;99.90;;;;;;4920446;28;20048;-62
2022/11/01 05:44:07;;;;;;;16.38;6.30;;;15.40;99.90;;;;;;4901972;29;20646;-62
2022/11/01 05:46:33;;;;;;;10.93;6.60;;;15.40;99.90;;;;;;4876086;29;20103;-62
2022/11/01 05:48:59;;;;;;;11.63;5.72;;;15.40;99.90;;;;;;4922144;28;20056;-62
2022/11/01 05:51:24;;;;;;;12.02;4.95;;;15.40;99.90;;;;;;4888132;29;20052;-62
2022/11/01 05:53:50;;;;;;;9.70;4.65;;;15.40;99.90;;;;;;4890933;29;20055;-62
2022/11/01 05:56:17;;;;;;;10.07;4.55;;;15.30;99.90;;;;;;4889710;29;20048;-62
2022/11/01 05:58:43;;;;;;;8.23;4.10;;;15.30;99.90;;;;;;4888744;29;20049;-63
2022/11/01 06:01:09;;;;;;;7.70;4.03;;;15.30;99.90;;;;;;4915881;28;20495;-63
2022/11/01 06:03:35;;;;;;;7.15;3.00;;;15.30;99.90;;;;;;4888312;29;20053;-62
2022/11/01 06:06:01;;;;;;;5.45;3.22;;;15.20;99.90;;;;;;4888966;29;20491;-62
2022/11/01 06:08:28;;;;;;;5.72;2.35;;;15.20;99.90;;;;;;4914047;28;20052;-62
2022/11/01 06:11:01;;;;;;;5.95;2.33;;;15.10;99.90;;;;;;4909507;29;20118;-62
2022/11/01 06:13:27;;;;;;;6.10;1.80;;;15.00;99.90;;;;;;4869423;29;20146;-62
2022/11/01 06:16:00;;;;;;;5.47;1.65;;;14.90;99.90;;;;;;4884700;29;20338;-63
2022/11/01 06:18:26;;;;;;;5.50;1.65;;;14.90;99.90;;;;;;4883940;29;20135;-62
2022/11/01 06:20:52;;;;;;;7.40;1.75;;;14.80;99.90;;;;;;4873298;29;20051;-62
2022/11/01 06:23:18;;;;;;;9.20;1.75;;;14.70;99.90;;;;;;4900905;29;20048;-63
2022/11/01 06:25:44;;;;;;;5.70;1.90;;;14.60;99.90;;;;;;4884133;29;20055;-62
2022/11/01 06:28:10;;;;;;;5.53;2.10;;;14.60;99.90;;;;;;4899898;29;20056;-62
2022/11/01 06:30:37;;;;;;;9.68;2.25;;;14.50;99.90;;;;;;4884878;29;20774;-62
2022/11/01 06:33:05;;;;;;;6.20;2.50;;;14.50;99.90;;;;;;4883887;29;20063;-62
2022/11/01 06:35:32;;;;;;;8.15;2.50;;;14.40;99.90;;;;;;4887652;29;20048;-62
2022/11/01 06:38:08;;;;;;;5.60;2.33;;;14.40;99.90;;;;;;4899595;29;20071;-62
2022/11/01 06:40:35;;;;;;;4.40;2.10;;;14.30;99.90;;;;;;4873258;29;20152;-62
2022/11/01 06:43:03;;;;;;;4.28;1.80;;;14.30;99.90;;;;;;4892075;29;20045;-62
2022/11/01 06:45:29;;;;;;;6.97;2.15;;;14.20;99.90;;;;;;4875198;29;20052;-62
2022/11/01 06:47:55;;;;;;;7.72;2.10;;;14.20;99.90;;;;;;4890367;29;20068;-62
2022/11/01 06:50:21;;;;;;;6.85;2.50;;;14.10;99.90;;;;;;4885492;29;20129;-62
2022/11/01 06:52:48;;;;;;;5.53;1.98;;;14.00;99.90;;;;;;4898267;29;20086;-62
2022/11/01 06:55:14;;;;;;;7.00;1.90;;;14.00;99.90;;;;;;4876530;29;20055;-62
2022/11/01 06:57:40;;;;;;;11.45;2.53;;;14.00;99.90;;;;;;4871712;29;20048;-62
2022/11/01 07:00:08;;;;;;;7.88;1.90;;;14.00;99.90;;;;;;4882406;29;20096;-62
2022/11/01 07:02:34;;;;;;;9.25;1.42;;;13.90;99.90;;;;;;4896331;29;20457;-62
2022/11/01 07:05:00;;;;;;;6.70;1.42;;;13.90;99.90;;;;;;4883585;29;20048;-63
2022/11/01 07:07:25;;;;;;;9.95;2.75;;;13.90;99.90;;;;;;4881075;29;20056;-63
2022/11/01 07:09:51;;;;;;;11.63;2.25;;;13.80;99.90;;;;;;4879745;29;20052;-60
2022/11/01 07:12:17;;;;;;;8.20;1.88;;;13.80;99.90;;;;;;4882562;29;20056;-54
2022/11/01 07:14:43;;;;;;;5.90;2.38;;;13.80;99.90;;;;;;4882659;29;20048;-54
2022/11/01 07:17:09;;;;;;;13.32;2.38;;;13.70;99.90;;;;;;4888211;29;20058;-51
2022/11/01 07:19:34;;;;;;;10.20;2.55;;;13.70;99.90;;;;;;4891893;29;20470;-54
2022/11/01 07:22:00;;;;;;;11.55;2.40;;;13.70;99.90;;;;;;4892267;29;20044;-54
2022/11/01 07:24:26;;;;;;;10.32;2.08;;;13.70;99.90;;;;;;4891655;29;20049;-53
2022/11/01 07:26:52;;;;;;;7.32;2.00;;;13.70;99.90;;;;;;4893007;29;20094;-51
2022/11/01 07:29:19;;;;;;;9.45;2.15;;;13.70;99.90;;;;;;4893807;29;20055;-52
2022/11/01 07:31:46;;;;;;;10.02;2.35;;;13.70;99.90;;;;;;4889646;29;20549;-54
2022/11/01 07:34:12;;;;;;;14.27;2.42;;;13.70;99.90;;;;;;4895521;29;20060;-51
2022/11/01 07:36:38;;;;;;;12.25;2.42;;;13.80;99.90;;;;;;4895346;29;20491;-53
2022/11/01 07:39:04;;;;;;;15.23;2.63;;;13.80;99.90;;;;;;4891585;29;20055;-52
2022/11/01 07:41:30;;;;;;;10.02;2.53;;;13.80;99.90;;;;;;4904817;29;20048;-53
2022/11/01 07:43:56;;;;;;;16.75;2.65;;;13.70;99.90;;;;;;4893392;29;20048;-52
2022/11/01 07:46:22;;;;;;;11.88;2.83;;;13.80;99.90;;;;;;4895090;29;20410;-54
2022/11/01 07:48:49;;;;;;;12.65;3.20;;;13.80;99.90;;;;;;4890212;29;20144;-54
2022/11/01 07:51:16;;;;;;;13.43;3.08;;;13.90;99.90;;;;;;4891108;29;20096;-53
2022/11/01 07:53:41;;;;;;;12.20;2.80;;;13.90;99.90;;;;;;4890707;29;20554;-53
2022/11/01 07:56:07;;;;;;;16.20;2.78;;;13.90;99.90;;;;;;4891466;29;20162;-54
2022/11/01 07:58:34;;;;;;;9.63;2.22;;;14.00;99.90;;;;;;4892045;29;20147;-50
2022/11/01 08:01:00;;;;;;;10.02;2.30;;;14.00;99.90;;;;;;4889650;29;20147;-54
2022/11/01 08:03:26;;;;;;;13.52;2.20;;;14.10;99.90;;;;;;4893727;29;20049;-53
2022/11/01 08:05:52;;;;;;;23.20;3.05;;;14.10;99.90;;;;;;4889479;29;20055;-54
2022/11/01 08:08:18;;;;;;;11.25;2.10;;;14.10;99.90;;;;;;4895038;29;20052;-54
2022/11/01 08:10:44;;;;;;;15.43;2.45;;;14.10;99.90;;;;;;4891085;29;20060;-55
2022/11/01 08:13:16;;;;;;;15.85;2.30;;;14.20;99.90;;;;;;4890413;29;20056;-54
2022/11/01 08:15:42;;;;;;;13.05;2.63;;;14.20;99.90;;;;;;4894318;29;20108;-54
2022/11/01 08:18:08;;;;;;;16.88;2.63;;;14.20;99.90;;;;;;4892328;29;20172;-55
2022/11/01 08:20:34;;;;;;;14.88;2.55;;;14.20;99.90;;;;;;4891446;29;20063;-54
2022/11/01 08:23:00;;;;;;;11.98;2.90;;;14.20;99.90;;;;;;4905680;29;20474;-53
2022/11/01 08:25:26;;;;;;;17.27;2.80;;;14.30;99.90;;;;;;4894035;29;20765;-53
2022/11/01 08:27:52;;;;;;;14.70;2.75;;;14.30;99.90;;;;;;4888132;29;20561;-52
2022/11/01 08:30:18;;;;;;;16.95;3.35;;;14.30;99.90;;;;;;4892954;29;20475;-54
2022/11/01 08:32:44;;;;;;;13.13;2.85;;;14.30;99.90;;;;;;4892836;29;20047;-54
2022/11/01 08:35:11;;;;;;;17.58;3.00;;;14.30;99.90;;;;;;4892255;29;20048;-54
2022/11/01 08:37:46;;;;;;;15.25;3.03;;;14.30;99.90;;;;;;4891579;29;20051;-55
2022/11/01 08:40:11;;;;;;;17.77;2.97;;;14.30;99.90;;;;;;4890457;29;20124;-55
2022/11/01 08:42:37;;;;;;;14.35;2.65;;;14.40;99.90;;;;;;4893053;29;20573;-54
2022/11/01 08:45:05;;;;;;;16.65;3.15;;;14.30;99.90;;;;;;4891078;29;20048;-55
2022/11/01 08:47:30;;;;;;;16.85;3.08;;;14.40;99.90;;;;;;4891507;29;20052;-53
2022/11/01 08:49:56;;;;;;;15.70;2.65;;;14.30;99.90;;;;;;4872637;29;20058;-54
2022/11/01 08:52:22;;;;;;;15.90;3.25;;;14.30;99.90;;;;;;4891591;29;20056;-54
2022/11/01 08:54:48;;;;;;;17.73;3.25;;;14.30;99.90;;;;;;4890848;29;20063;-52
2022/11/01 08:57:14;;;;;;;18.25;2.90;;;14.30;99.90;;;;;;4889815;29;20132;-51
2022/11/01 08:59:40;;;;;;;18.13;3.17;;;14.40;99.90;;;;;;4889147;29;20048;-53
2022/11/01 09:02:10;;;;;;;21.08;3.40;;;14.30;99.90;;;;;;4892947;29;20059;-53
2022/11/01 09:04:35;;;;;;;15.40;3.63;;;14.30;99.90;;;;;;4887653;29;20048;-54
2022/11/01 09:07:02;;;;;;;21.13;3.55;;;14.30;99.90;;;;;;4890735;29;20046;-54
2022/11/01 09:09:28;;;;;;;22.23;3.38;;;14.30;99.90;;;;;;4892633;29;20058;-53
2022/11/01 09:11:54;;;;;;;17.15;3.30;;;14.30;99.90;;;;;;4882572;29;20549;-54
2022/11/01 09:14:23;;;;;;;22.67;3.85;;;14.40;99.90;;;;;;4886080;29;20056;-53
2022/11/01 09:16:50;;;;;;;15.80;2.80;;;14.50;99.90;;;;;;4876116;29;20056;-53
2022/11/01 09:19:16;;;;;;;20.20;3.28;;;14.60;99.90;;;;;;4874102;29;20052;-54
2022/11/01 09:21:45;;;;;;;25.38;3.90;;;14.60;99.90;;;;;;4889745;29;20121;-54
2022/11/01 09:24:12;;;;;;;25.15;3.53;;;14.70;99.90;;;;;;4877718;29;20076;-53
2022/11/01 09:26:38;;;;;;;15.93;2.88;;;14.70;99.90;;;;;;4872774;29;20053;-53
2022/11/01 09:29:04;;;;;;;26.75;3.55;;;14.70;99.90;;;;;;4872381;29;20496;-55
2022/11/01 09:31:32;;;;;;;15.68;3.35;;;14.80;99.90;;;;;;4872089;29;20056;-55
2022/11/01 09:33:59;;;;;;;17.63;3.25;;;14.80;99.90;;;;;;4871644;29;20168;-53
2022/11/01 09:36:26;;;;;;;15.55;2.83;;;14.70;99.90;;;;;;4871258;29;20075;-54
2022/11/01 09:38:53;;;;;;;22.70;3.58;;;14.70;99.90;;;;;;4876191;29;20547;-54
2022/11/01 09:41:46;;;;;;;27.23;3.35;;;14.70;99.90;;;;;;4872277;29;20117;-54
2022/11/01 09:44:25;;;;;;;21.38;3.75;;;14.80;99.90;;;;;;4886367;29;20053;-54
2022/11/01 09:46:54;;;;;;;16.38;3.25;;;14.80;99.90;;;;;;4873922;29;20092;-52
2022/11/01 09:49:27;;;;;;;24.08;3.28;;;14.80;99.90;;;;;;4868958;29;20144;-53
2022/11/01 09:51:53;;;;;;;;;;;14.90;99.90;;;;;;4868520;29;20061;-54
2022/11/01 09:54:22;;;;;;;24.75;3.42;;;14.90;99.90;;;;;;4872501;29;19927;-54
2022/11/01 09:57:26;;;;;;;16.63;3.70;;;14.90;99.90;;;;;;4870359;29;20131;-55
2022/11/01 10:00:12;;;;;;;15.27;3.35;;;15.10;99.90;;;;;;4880855;29;20049;-54
2022/11/01 10:03:18;;;;;;;19.17;3.60;;;15.30;99.90;;;;;;4868471;29;20048;-53
2022/11/01 10:05:57;;;;;;;16.48;3.20;;;15.40;99.90;;;;;;4877803;29;20049;-53
2022/11/01 10:08:45;;;;;;;19.00;3.17;;;15.60;99.90;;;;;;4874416;29;20057;-54
2022/11/01 10:11:22;;;;;;;16.25;2.58;;;15.70;99.90;;;;;;4872706;29;20471;-55
2022/11/01 10:14:07;;;;;;;21.77;4.03;;;15.80;99.90;;;;;;4896231;29;20048;-54
2022/11/01 10:16:40;;;;;;;21.45;3.88;;;15.80;99.90;;;;;;4897815;29;20044;-53
2022/11/01 10:19:17;;;;;;;16.05;3.03;;;15.70;99.90;;;;;;4890741;29;20081;-54
2022/11/01 10:22:02;;;;;;;24.90;3.25;;;15.70;99.90;;;;;;4889772;29;20048;-55
2022/11/01 10:24:46;;;;;;;17.50;3.50;;;15.70;99.90;;;;;;4890801;29;20359;-54
2022/11/01 10:27:31;;;;;;;17.52;3.40;;;15.70;99.90;;;;;;4890689;29;20052;-55
2022/11/01 10:29:57;;;;;;;21.45;3.55;;;15.70;99.90;;;;;;4890540;29;20071;-55
2022/11/01 10:32:39;;;;;;;23.48;3.72;;;15.80;99.90;;;;;;4887543;29;20435;-55
2022/11/01 10:35:22;;;;;;;21.42;3.65;;;15.90;99.90;;;;;;4889708;29;20399;-53
2022/11/01 10:38:17;;;;;;;19.08;3.70;;;16.10;99.90;;;;;;4889541;29;20040;-53
2022/11/01 10:40:51;;;;;;;22.27;3.20;;;16.20;99.90;;;;;;4889087;29;20056;-54
2022/11/01 10:43:21;;;;;;;22.50;3.50;;;16.40;99.90;;;;;;4890045;29;20075;-55
2022/11/01 10:45:51;;;;;;;15.40;3.47;;;16.40;99.90;;;;;;4891550;29;20376;-54
2022/11/01 10:48:42;;;;;;;20.75;3.53;;;16.50;99.90;;;;;;4889904;29;20056;-55
2022/11/01 10:51:09;;;;;;;17.15;3.20;;;16.60;99.90;;;;;;4887269;29;20084;-55
2022/11/01 10:53:47;;;;;;;22.20;3.65;;;16.60;99.90;;;;;;4895772;29;20063;-54
2022/11/01 10:56:25;;;;;;;18.90;3.60;;;16.40;99.90;;;;;;4890663;29;20135;-54
2022/11/01 10:59:17;;;;;;;21.30;3.03;;;16.30;99.90;;;;;;4892580;29;20131;-54
2022/11/01 11:01:44;;;;;;;21.23;3.58;;;16.10;99.90;;;;;;4892069;29;20048;-55
2022/11/01 11:04:17;;;;;;;20.83;3.53;;;16.00;99.90;;;;;;4896429;29;20136;-55
2022/11/01 11:06:44;;;;;;;18.15;3.63;;;15.90;99.90;;;;;;4892720;29;20052;-54
2022/11/01 11:09:28;;;;;;;17.90;3.70;;;15.80;99.90;;;;;;4893960;29;20400;-53
2022/11/01 11:11:58;;;;;;;19.00;3.40;;;15.60;99.90;;;;;;4898090;29;20087;-54
2022/11/01 11:14:25;;;;;;;14.70;3.70;;;15.60;99.90;;;;;;4892059;29;20435;-54
2022/11/01 11:16:55;;;;;;;23.08;4.28;;;15.50;99.90;;;;;;4893250;29;20044;-52
2022/11/01 11:19:37;;;;;;;16.20;3.42;;;15.40;99.90;;;;;;4911239;29;20095;-49
2022/11/01 11:22:08;;;;;;;17.65;3.38;;;15.50;99.90;;;;;;4888356;29;20048;-51
2022/11/01 11:24:39;;;;;;;27.75;3.05;;;15.50;99.90;;;;;;4895211;29;20056;-49
2022/11/01 11:27:26;;;;;;;17.75;3.05;;;15.50;99.90;;;;;;4886152;29;20047;-57
2022/11/01 11:29:57;;;;;;;18.00;3.08;;;15.50;99.90;;;;;;4893059;29;20476;-53
2022/11/01 11:32:29;;;;;;;15.43;3.17;;;15.50;99.90;;;;;;4889345;29;20052;-54
2022/11/01 11:35:16;;;;;;;19.23;3.95;;;15.50;99.90;;;;;;4895426;29;20059;-55
2022/11/01 11:37:56;;;;;;;13.60;3.25;;;15.60;99.90;;;;;;4920229;28;20543;-57
2022/11/01 11:40:26;;;;;;;13.52;2.88;;;15.60;99.90;;;;;;4893814;29;20055;-54
2022/11/01 11:42:55;;;;;;;16.60;3.67;;;15.60;99.90;;;;;;4891805;29;20052;-56
2022/11/01 11:45:26;;;;;;;16.45;3.20;;;15.60;99.90;;;;;;4891090;29;20059;-53
2022/11/01 11:47:53;;;;;;;22.67;3.30;;;15.60;99.90;;;;;;4885847;29;20060;-55
2022/11/01 11:50:19;;;;;;;17.48;2.97;;;15.70;99.90;;;;;;4887270;29;20092;-56
2022/11/01 11:53:16;;;;;;;24.23;3.63;;;15.90;99.90;;;;;;4883674;29;20048;-57
2022/11/01 11:56:05;;;;;;;18.65;3.10;;;16.00;99.90;;;;;;4886091;29;20398;-55
2022/11/01 11:58:40;;;;;;;15.63;3.70;;;16.30;99.90;;;;;;4885553;29;20058;-55
2022/11/01 12:01:08;;;;;;;16.15;3.00;;;16.50;99.90;;;;;;4887703;29;20513;-53
2022/11/01 12:03:51;;;;;;;16.20;3.28;;;16.60;99.90;;;;;;4888040;29;20500;-56
2022/11/01 12:06:28;;;;;;;13.70;3.30;;;16.70;99.90;;;;;;4890946;29;20488;-56
2022/11/01 12:08:58;;;;;;;14.90;3.05;;;16.70;99.90;;;;;;4888547;29;20712;-56
2022/11/01 12:11:36;;;;;;;14.35;3.30;;;16.70;99.90;;;;;;4891102;29;21092;-56
2022/11/01 12:14:18;;;;;;;21.30;3.17;;;16.80;99.90;;;;;;4883461;29;20052;-53
2022/11/01 12:16:44;;;;;;;13.90;3.85;;;16.70;99.90;;;;;;4884763;29;20569;-56
2022/11/01 12:19:30;;;;;;;18.88;3.67;;;16.70;99.90;;;;;;4917903;28;20041;-57
2022/11/01 12:22:01;;;;;;;18.27;3.25;;;16.70;99.90;;;;;;4887420;29;20044;-56
2022/11/01 12:24:34;;;;;;;18.38;3.08;;;16.70;99.90;;;;;;4888045;29;20127;-55
2022/11/01 12:27:05;;;;;;;15.90;3.03;;;16.70;99.90;;;;;;4885846;29;20048;-56
2022/11/01 12:29:41;;;;;;;16.17;3.05;;;16.80;99.90;;;;;;4884516;29;20044;-55
2022/11/01 12:32:38;;;;;;;14.43;2.78;;;16.90;99.90;;;;;;4888828;29;20080;-56
2022/11/01 12:35:15;;;;;;;13.45;2.80;;;16.90;99.90;;;;;;4887914;29;20159;-55
2022/11/01 12:38:09;;;;;;;22.27;2.92;;;17.00;99.90;;;;;;4888721;29;20119;-54
2022/11/01 12:40:37;;;;;;;15.30;2.63;;;17.00;99.90;;;;;;4888243;29;20131;-54
2022/11/01 12:43:15;;;;;;;15.07;3.00;;;16.90;99.90;;;;;;4884082;29;20514;-55
2022/11/01 12:45:49;;;;;;;13.65;2.63;;;16.90;99.90;;;;;;4885129;29;20053;-55
2022/11/01 12:48:39;;;;;;;15.65;3.13;;;16.90;99.90;;;;;;4886017;29;20059;-56
2022/11/01 12:51:38;;;;;;;15.35;2.90;;;16.80;99.90;;;;;;4892050;29;20127;-55
2022/11/01 12:54:27;;;;;;;15.20;2.70;;;17.00;99.90;;;;;;4886830;29;20084;-54
2022/11/01 12:56:55;;;;;;;12.40;2.22;;;17.00;99.90;;;;;;4884651;29;20080;-56
2022/11/01 12:59:30;;;;;;;16.17;2.80;;;17.10;99.90;;;;;;4886076;29;20079;-56
2022/11/01 13:02:28;;;;;;;14.32;2.38;;;17.20;99.90;;;;;;4881622;29;20044;-56